Time;durP1;ratioP1;P1;durP2;ratioP2;P2;SDS_P1;SDS_P2;PMS_P1;PMS_P2;Temp;Humidity;BMP_temperature;BMP_pressure;BME280_temperature;BME280_humidity;BME280_pressure;Samples;Min_cycle;Max_cycle;Signal;HPM_P1;HPM_P2
2023/05/25 00:02:07;;;;;;;5.63;2.23;;;12.40;98.00;;;;;;5053570;28;20461;-66
2023/05/25 00:04:35;;;;;;;4.50;2.27;;;12.50;98.00;;;;;;5035956;28;20457;-66
2023/05/25 00:07:03;;;;;;;8.30;2.40;;;12.60;98.00;;;;;;5053297;28;20880;-66
2023/05/25 00:09:30;;;;;;;2.97;2.07;;;12.60;98.00;;;;;;5036135;28;20467;-66
2023/05/25 00:11:58;;;;;;;9.10;2.40;;;12.60;98.00;;;;;;5053494;28;20506;-67
2023/05/25 00:14:27;;;;;;;5.17;2.60;;;12.70;98.00;;;;;;5053416;28;20510;-66
2023/05/25 00:16:54;;;;;;;3.93;2.17;;;12.60;98.00;;;;;;5053318;28;20821;-66
2023/05/25 00:19:21;;;;;;;7.53;2.67;;;12.50;98.00;;;;;;5053227;28;20455;-66
2023/05/25 00:21:48;;;;;;;6.00;2.33;;;12.60;98.00;;;;;;5053315;28;20461;-66
2023/05/25 00:24:15;;;;;;;3.70;2.10;;;12.70;98.00;;;;;;5053068;28;20485;-66
2023/05/25 00:26:43;;;;;;;6.73;2.43;;;12.80;98.00;;;;;;5035738;28;20970;-66
2023/05/25 00:29:11;;;;;;;5.67;2.43;;;12.90;98.00;;;;;;5052617;28;20847;-66
2023/05/25 00:31:42;;;;;;;7.93;2.30;;;12.90;98.00;;;;;;5053229;28;20443;-66
2023/05/25 00:34:09;;;;;;;5.20;2.07;;;12.90;98.00;;;;;;5052743;28;20458;-66
2023/05/25 00:36:36;;;;;;;3.70;2.10;;;12.70;98.00;;;;;;5035102;28;20465;-66
2023/05/25 00:39:03;;;;;;;5.53;2.17;;;12.60;98.00;;;;;;5035178;28;20458;-66
2023/05/25 00:41:32;;;;;;;4.17;2.27;;;12.60;98.00;;;;;;5052819;28;20487;-66
2023/05/25 00:43:59;;;;;;;3.10;2.07;;;12.60;98.00;;;;;;5052824;28;20463;-66
2023/05/25 00:46:27;;;;;;;6.60;3.17;;;12.50;98.00;;;;;;5052502;28;20459;-66
2023/05/25 00:48:56;;;;;;;3.77;2.03;;;12.40;98.00;;;;;;5052552;28;20450;-66
2023/05/25 00:51:23;;;;;;;4.13;2.20;;;12.60;98.00;;;;;;5052518;28;20547;-66
2023/05/25 00:53:51;;;;;;;3.17;2.07;;;12.50;98.00;;;;;;5052688;28;20463;-66
2023/05/25 00:56:22;;;;;;;4.77;2.20;;;12.40;98.00;;;;;;5052193;28;20506;-66
2023/05/25 00:58:54;;;;;;;3.27;1.97;;;12.40;98.00;;;;;;5052188;28;20467;-66
2023/05/25 01:01:23;;;;;;;4.40;2.10;;;12.40;98.00;;;;;;5052414;28;20464;-66
2023/05/25 01:03:53;;;;;;;4.13;2.17;;;12.40;98.00;;;;;;5034958;28;20467;-66
2023/05/25 01:06:27;;;;;;;4.00;2.30;;;12.20;98.00;;;;;;5052380;28;20807;-66
2023/05/25 01:09:00;;;;;;;5.97;2.27;;;12.40;98.00;;;;;;5034987;28;20487;-66
2023/05/25 01:11:34;;;;;;;5.30;2.00;;;12.20;98.00;;;;;;5052263;28;20469;-66
2023/05/25 01:14:02;;;;;;;3.50;2.30;;;12.40;98.00;;;;;;5052476;28;20453;-66
2023/05/25 01:16:29;;;;;;;4.70;2.43;;;12.50;98.00;;;;;;5052268;28;20491;-66
2023/05/25 01:18:57;;;;;;;2.37;1.90;;;12.50;98.00;;;;;;5052450;28;20490;-66
2023/05/25 01:21:32;;;;;;;4.63;2.40;;;12.50;98.00;;;;;;5052347;28;20856;-66
2023/05/25 01:24:03;;;;;;;4.20;2.57;;;12.40;98.00;;;;;;5052553;28;20824;-66
2023/05/25 01:26:39;;;;;;;5.17;2.40;;;12.20;98.00;;;;;;5052544;28;20859;-66
2023/05/25 01:29:07;;;;;;;9.13;2.13;;;12.20;98.00;;;;;;5052117;28;20507;-66
2023/05/25 01:31:35;;;;;;;12.30;3.30;;;12.20;98.00;;;;;;5018181;28;20460;-66
2023/05/25 01:34:04;;;;;;;4.37;2.33;;;12.30;98.00;;;;;;5051952;28;20856;-66
2023/05/25 01:36:33;;;;;;;4.07;2.50;;;12.20;98.00;;;;;;5051760;28;20468;-66
2023/05/25 01:39:00;;;;;;;7.10;2.50;;;12.30;98.00;;;;;;5051599;28;20547;-66
2023/05/25 01:41:27;;;;;;;4.30;2.20;;;12.30;98.00;;;;;;5051681;28;20448;-66
2023/05/25 01:43:54;;;;;;;5.00;2.43;;;12.20;98.00;;;;;;5051777;28;20805;-66
2023/05/25 01:46:28;;;;;;;4.30;2.40;;;12.20;98.00;;;;;;5051615;28;20450;-66
2023/05/25 01:49:07;;;;;;;3.20;2.30;;;12.10;98.00;;;;;;5051141;28;20511;-66
2023/05/25 01:51:43;;;;;;;2.80;1.87;;;12.10;98.00;;;;;;5051882;28;20505;-66
2023/05/25 01:54:18;;;;;;;5.33;2.33;;;12.20;98.00;;;;;;5051594;28;20471;-66
2023/05/25 01:56:47;;;;;;;6.13;2.30;;;12.20;98.00;;;;;;5051676;28;20970;-66
2023/05/25 01:59:16;;;;;;;2.63;2.00;;;12.20;98.00;;;;;;5051659;28;20458;-66
2023/05/25 02:01:45;;;;;;;6.63;2.73;;;12.20;98.00;;;;;;5017774;28;20534;-66
2023/05/25 02:04:12;;;;;;;5.77;3.00;;;12.30;98.00;;;;;;5051628;28;20469;-66
2023/05/25 02:06:41;;;;;;;4.30;2.60;;;12.20;98.00;;;;;;5051684;28;20458;-66
2023/05/25 02:09:09;;;;;;;4.20;2.40;;;12.20;98.00;;;;;;5053695;28;20486;-66
2023/05/25 02:11:36;;;;;;;7.07;2.60;;;12.30;98.00;;;;;;5038084;28;20621;-66
2023/05/25 02:14:03;;;;;;;3.17;2.10;;;12.20;98.00;;;;;;5055837;28;20468;-66
2023/05/25 02:16:31;;;;;;;3.50;2.30;;;12.30;98.00;;;;;;5055696;28;20458;-66
2023/05/25 02:18:58;;;;;;;4.70;2.13;;;12.30;98.00;;;;;;5038145;28;20455;-66
2023/05/25 02:21:25;;;;;;;5.80;2.80;;;12.30;98.00;;;;;;5055745;28;20480;-66
2023/05/25 02:23:53;;;;;;;5.20;2.70;;;12.30;98.00;;;;;;5038080;28;20487;-65
2023/05/25 02:26:21;;;;;;;3.60;2.30;;;12.30;98.00;;;;;;5055460;28;20551;-66
2023/05/25 02:28:48;;;;;;;8.67;3.20;;;12.30;98.00;;;;;;5054857;28;21291;-66
2023/05/25 02:31:15;;;;;;;3.80;2.40;;;12.30;98.00;;;;;;5037871;28;20451;-66
2023/05/25 02:33:42;;;;;;;3.67;2.37;;;12.20;98.00;;;;;;5037311;28;20541;-67
2023/05/25 02:36:18;;;;;;;10.00;2.93;;;12.20;98.00;;;;;;5055041;28;20850;-66
2023/05/25 02:38:48;;;;;;;4.63;2.73;;;12.20;98.00;;;;;;5055182;28;20455;-66
2023/05/25 02:41:18;;;;;;;4.00;2.50;;;12.10;98.00;;;;;;5037375;28;20466;-66
2023/05/25 02:43:45;;;;;;;7.20;2.40;;;12.00;98.00;;;;;;5055244;28;20462;-66
2023/05/25 02:46:13;;;;;;;7.83;2.90;;;12.10;98.00;;;;;;5054993;28;20977;-66
2023/05/25 02:48:41;;;;;;;7.90;2.50;;;12.20;98.00;;;;;;5037232;28;20542;-66
2023/05/25 02:51:08;;;;;;;5.27;2.83;;;12.10;98.00;;;;;;5054724;28;20510;-66
2023/05/25 02:53:35;;;;;;;12.80;2.77;;;12.20;98.00;;;;;;5054718;28;20466;-66
2023/05/25 02:56:03;;;;;;;8.03;3.00;;;12.20;98.00;;;;;;5054821;28;20495;-66
2023/05/25 02:58:32;;;;;;;3.17;2.20;;;12.20;98.00;;;;;;5037380;28;20938;-66
2023/05/25 03:00:59;;;;;;;3.03;2.00;;;12.20;98.00;;;;;;5054815;28;20455;-66
2023/05/25 03:03:26;;;;;;;4.37;2.57;;;12.20;98.00;;;;;;5054918;28;20862;-66
2023/05/25 03:05:53;;;;;;;3.90;1.90;;;12.20;98.00;;;;;;5037175;28;20459;-67
2023/05/25 03:08:21;;;;;;;4.00;2.60;;;12.10;98.00;;;;;;5054465;28;20517;-66
2023/05/25 03:10:49;;;;;;;4.03;2.40;;;12.00;98.00;;;;;;5055000;28;20466;-67
2023/05/25 03:13:16;;;;;;;3.50;2.40;;;12.00;98.00;;;;;;5054768;28;20505;-66
2023/05/25 03:15:46;;;;;;;4.93;2.80;;;11.80;98.00;;;;;;5054918;28;20464;-66
2023/05/25 03:18:13;;;;;;;5.07;2.60;;;11.70;98.00;;;;;;5054714;28;20457;-66
2023/05/25 03:20:41;;;;;;;5.23;2.90;;;11.50;98.00;;;;;;5053903;28;20453;-66
2023/05/25 03:23:08;;;;;;;7.37;3.07;;;11.30;98.00;;;;;;5054144;28;20454;-67
2023/05/25 03:25:35;;;;;;;4.70;2.43;;;11.40;98.00;;;;;;5054373;28;20453;-66
2023/05/25 03:28:02;;;;;;;4.10;2.33;;;11.40;98.00;;;;;;5054001;28;20486;-67
2023/05/25 03:30:30;;;;;;;5.60;2.90;;;11.30;98.00;;;;;;5054356;28;20512;-66
2023/05/25 03:32:58;;;;;;;7.03;2.97;;;11.10;98.00;;;;;;5054067;28;20460;-66
2023/05/25 03:35:26;;;;;;;3.87;2.30;;;11.00;98.00;;;;;;5053862;28;20496;-66
2023/05/25 03:37:53;;;;;;;4.60;2.60;;;11.10;98.00;;;;;;5036591;28;20463;-66
2023/05/25 03:40:20;;;;;;;5.07;2.50;;;11.30;98.00;;;;;;5054026;28;20820;-66
2023/05/25 03:42:47;;;;;;;4.00;2.67;;;11.40;98.00;;;;;;5053789;28;20458;-66
2023/05/25 03:45:14;;;;;;;5.13;2.70;;;11.40;98.00;;;;;;5053904;28;20973;-66
2023/05/25 03:47:41;;;;;;;3.07;2.20;;;11.60;98.00;;;;;;5035988;28;20996;-66
2023/05/25 03:50:12;;;;;;;7.80;2.77;;;11.70;98.00;;;;;;5053974;28;20857;-66
2023/05/25 03:52:39;;;;;;;5.13;2.93;;;11.80;98.00;;;;;;5053672;28;20478;-66
2023/05/25 03:55:06;;;;;;;4.67;2.20;;;11.80;98.00;;;;;;5053799;28;20820;-66
2023/05/25 03:57:33;;;;;;;5.30;2.90;;;11.80;98.00;;;;;;5053948;28;20455;-66
2023/05/25 04:00:00;;;;;;;5.30;2.43;;;11.80;98.00;;;;;;5053684;28;20455;-66
2023/05/25 04:02:28;;;;;;;7.60;2.77;;;11.80;98.00;;;;;;5035847;28;20456;-66
2023/05/25 04:04:55;;;;;;;8.83;2.77;;;11.80;98.00;;;;;;5019496;28;20549;-66
2023/05/25 04:07:28;;;;;;;5.43;2.50;;;11.70;98.00;;;;;;5036287;28;20459;-66
2023/05/25 04:09:56;;;;;;;4.03;2.30;;;11.70;98.00;;;;;;5036489;28;20454;-66
2023/05/25 04:12:23;;;;;;;5.70;2.83;;;11.60;98.00;;;;;;5053781;28;20452;-66
2023/05/25 04:14:51;;;;;;;5.90;2.90;;;11.50;98.00;;;;;;5053469;28;20520;-66
2023/05/25 04:17:20;;;;;;;4.00;2.57;;;11.40;98.00;;;;;;5053333;28;20461;-66
2023/05/25 04:19:48;;;;;;;7.87;2.97;;;11.30;98.00;;;;;;5053164;28;20463;-66
2023/05/25 04:22:15;;;;;;;3.13;2.13;;;11.30;98.00;;;;;;5053178;28;20460;-66
2023/05/25 04:24:44;;;;;;;6.23;3.03;;;11.00;98.00;;;;;;5052969;28;20450;-66
2023/05/25 04:27:13;;;;;;;8.10;3.23;;;10.80;98.00;;;;;;5053053;28;20465;-65
2023/05/25 04:29:41;;;;;;;5.30;2.40;;;10.60;98.00;;;;;;5053025;28;20542;-66
2023/05/25 04:32:09;;;;;;;12.43;3.07;;;10.70;98.00;;;;;;5052947;28;20447;-66
2023/05/25 04:34:36;;;;;;;5.10;3.03;;;10.90;98.00;;;;;;5053206;28;20486;-66
2023/05/25 04:37:04;;;;;;;5.10;3.20;;;10.90;98.00;;;;;;5052809;28;21020;-66
2023/05/25 04:39:32;;;;;;;5.40;2.43;;;10.90;98.00;;;;;;5053101;28;20464;-66
2023/05/25 04:42:03;;;;;;;5.03;2.93;;;11.10;98.00;;;;;;5050091;28;20891;-66
2023/05/25 04:44:30;;;;;;;6.00;2.30;;;11.20;98.00;;;;;;5033137;28;20483;-66
2023/05/25 04:47:01;;;;;;;9.97;2.90;;;11.20;98.00;;;;;;5015159;28;20465;-66
2023/05/25 04:49:28;;;;;;;3.93;2.27;;;11.30;98.00;;;;;;5015962;28;20489;-66
2023/05/25 04:51:55;;;;;;;5.80;2.40;;;11.50;98.00;;;;;;5033027;28;20462;-65
2023/05/25 04:54:22;;;;;;;5.60;2.90;;;11.50;98.00;;;;;;5032684;28;21008;-66
2023/05/25 04:56:49;;;;;;;8.97;3.13;;;11.70;98.00;;;;;;5015233;28;20466;-66
2023/05/25 04:59:17;;;;;;;5.87;2.70;;;11.80;98.00;;;;;;5032552;28;20461;-65
2023/05/25 05:01:45;;;;;;;5.80;3.13;;;11.90;98.00;;;;;;5032612;28;20508;-66
2023/05/25 05:04:14;;;;;;;10.40;3.50;;;12.00;98.00;;;;;;5032655;28;20460;-66
2023/05/25 05:06:41;;;;;;;5.43;2.87;;;12.10;98.00;;;;;;5032610;28;20456;-66
2023/05/25 05:09:08;;;;;;;5.60;2.93;;;12.20;98.00;;;;;;5032521;28;20490;-66
2023/05/25 05:11:35;;;;;;;7.93;3.47;;;12.10;98.00;;;;;;5032596;28;21050;-66
2023/05/25 05:14:02;;;;;;;6.23;3.23;;;12.20;98.00;;;;;;5032491;28;20528;-66
2023/05/25 05:16:33;;;;;;;6.40;3.10;;;12.10;98.00;;;;;;5032421;28;20463;-65
2023/05/25 05:19:01;;;;;;;7.80;3.20;;;12.30;98.00;;;;;;5014702;28;20835;-66
2023/05/25 05:21:28;;;;;;;5.70;2.97;;;12.30;98.00;;;;;;5032080;28;20552;-66
2023/05/25 05:23:56;;;;;;;7.20;2.90;;;12.40;98.00;;;;;;5031858;28;20967;-66
2023/05/25 05:26:23;;;;;;;6.53;3.17;;;12.50;98.00;;;;;;5032383;28;20484;-66
2023/05/25 05:28:51;;;;;;;4.47;2.90;;;12.40;98.00;;;;;;5032167;28;20524;-66
2023/05/25 05:31:18;;;;;;;7.07;3.10;;;12.50;98.00;;;;;;5014588;28;20825;-66
2023/05/25 05:33:47;;;;;;;4.80;2.93;;;12.60;98.00;;;;;;5032286;28;20842;-66
2023/05/25 05:36:14;;;;;;;6.70;3.30;;;12.70;98.00;;;;;;5014562;28;20511;-66
2023/05/25 05:38:41;;;;;;;6.83;3.47;;;12.70;98.00;;;;;;5032351;28;20464;-66
2023/05/25 05:41:12;;;;;;;6.70;3.10;;;12.80;98.00;;;;;;5014604;28;20782;-66
2023/05/25 05:43:41;;;;;;;6.90;3.47;;;12.90;98.00;;;;;;5014949;28;20480;-66
2023/05/25 05:46:09;;;;;;;5.17;2.93;;;13.00;98.00;;;;;;5031899;28;20460;-66
2023/05/25 05:48:36;;;;;;;6.73;3.03;;;13.00;98.00;;;;;;5032017;28;20497;-66
2023/05/25 05:51:06;;;;;;;6.43;3.00;;;13.00;98.00;;;;;;5032104;28;20456;-65
2023/05/25 05:53:34;;;;;;;7.23;3.53;;;13.00;98.00;;;;;;5031824;28;20959;-66
2023/05/25 05:56:01;;;;;;;5.37;3.03;;;13.00;98.00;;;;;;5031930;28;20552;-66
2023/05/25 05:58:28;;;;;;;7.00;3.33;;;13.10;98.00;;;;;;5031872;28;20550;-66
2023/05/25 06:00:56;;;;;;;5.80;3.00;;;13.20;98.00;;;;;;5014629;28;20457;-63
2023/05/25 06:03:23;;;;;;;6.70;3.43;;;13.20;98.00;;;;;;5031928;28;20459;-63
2023/05/25 06:05:50;;;;;;;9.83;3.40;;;13.30;98.00;;;;;;5032222;28;20460;-63
2023/05/25 06:08:20;;;;;;;8.63;2.73;;;13.40;98.00;;;;;;5031659;28;20473;-63
2023/05/25 06:10:47;;;;;;;5.53;3.40;;;13.50;98.00;;;;;;5014259;28;20457;-62
2023/05/25 06:13:14;;;;;;;9.47;3.20;;;13.60;98.00;;;;;;5031422;28;20453;-63
2023/05/25 06:15:41;;;;;;;8.00;3.10;;;13.60;98.00;;;;;;5014223;28;20873;-63
2023/05/25 06:18:08;;;;;;;10.97;3.70;;;13.60;98.00;;;;;;5031405;28;20513;-62
2023/05/25 06:20:35;;;;;;;5.13;3.07;;;13.70;98.00;;;;;;5014232;28;20449;-63
2023/05/25 06:23:02;;;;;;;9.77;3.53;;;13.70;98.00;;;;;;5031443;28;20461;-63
2023/05/25 06:25:31;;;;;;;12.50;3.60;;;13.90;98.00;;;;;;5031375;28;20794;-63
2023/05/25 06:27:58;;;;;;;7.50;3.50;;;14.00;98.00;;;;;;5031358;28;20451;-63
2023/05/25 06:30:25;;;;;;;13.20;3.50;;;14.00;98.00;;;;;;5031352;28;20490;-63
2023/05/25 06:32:52;;;;;;;8.33;3.83;;;14.10;98.00;;;;;;5031128;28;20458;-63
2023/05/25 06:35:19;;;;;;;8.20;3.60;;;14.20;98.00;;;;;;5031602;28;20466;-63
2023/05/25 06:37:47;;;;;;;7.57;3.50;;;14.30;98.00;;;;;;5031493;28;20458;-63
2023/05/25 06:40:15;;;;;;;6.57;3.30;;;14.30;98.00;;;;;;5031512;28;20460;-63
2023/05/25 06:42:44;;;;;;;11.57;4.20;;;14.40;98.00;;;;;;5031435;28;20454;-63
2023/05/25 06:45:11;;;;;;;5.60;3.00;;;14.50;98.00;;;;;;5031618;28;20462;-63
2023/05/25 06:47:38;;;;;;;6.90;3.30;;;14.50;98.00;;;;;;5031528;28;20461;-63
2023/05/25 06:50:07;;;;;;;6.90;3.23;;;14.70;98.00;;;;;;5031605;28;20483;-63
2023/05/25 06:52:34;;;;;;;6.50;3.33;;;14.70;98.00;;;;;;5031342;28;20470;-63
2023/05/25 06:55:02;;;;;;;8.10;3.80;;;14.70;98.00;;;;;;5031470;28;20454;-63
2023/05/25 06:57:29;;;;;;;7.83;3.30;;;14.80;98.00;;;;;;5035396;28;20512;-63
2023/05/25 06:59:58;;;;;;;8.13;3.77;;;14.90;98.00;;;;;;5035201;28;20533;-63
2023/05/25 07:02:25;;;;;;;6.20;3.53;;;15.00;98.00;;;;;;5034517;28;20453;-63
2023/05/25 07:04:52;;;;;;;7.03;3.50;;;15.00;98.00;;;;;;5034764;28;20469;-63
2023/05/25 07:07:19;;;;;;;7.43;3.83;;;15.10;98.00;;;;;;5016170;28;20532;-63
2023/05/25 07:09:46;;;;;;;7.37;3.33;;;15.10;98.00;;;;;;5034054;28;20507;-63
2023/05/25 07:12:13;;;;;;;6.43;3.60;;;15.20;98.00;;;;;;5033917;28;20493;-63
2023/05/25 07:14:40;;;;;;;6.70;3.87;;;15.30;98.00;;;;;;5032852;28;20819;-63
2023/05/25 07:17:11;;;;;;;7.90;4.07;;;15.30;98.00;;;;;;5016742;28;20463;-63
2023/05/25 07:19:39;;;;;;;11.50;3.90;;;15.40;98.00;;;;;;5034025;28;20478;-63
2023/05/25 07:22:06;;;;;;;8.20;3.70;;;15.30;98.00;;;;;;5034197;28;20553;-64
2023/05/25 07:24:33;;;;;;;8.57;3.90;;;15.20;98.00;;;;;;5033995;28;20593;-64
2023/05/25 07:27:00;;;;;;;6.13;3.63;;;15.20;98.00;;;;;;5033753;28;20842;-63
2023/05/25 07:29:28;;;;;;;10.87;4.00;;;15.10;98.00;;;;;;5016103;28;21038;-64
2023/05/25 07:31:56;;;;;;;8.90;4.13;;;15.20;98.00;;;;;;5034147;28;20467;-64
2023/05/25 07:34:24;;;;;;;8.80;3.47;;;15.40;98.00;;;;;;5034080;28;20463;-63
2023/05/25 07:36:52;;;;;;;12.30;4.40;;;15.50;98.00;;;;;;5034007;28;20458;-64
2023/05/25 07:39:19;;;;;;;8.47;3.90;;;15.60;98.00;;;;;;5034059;28;20458;-65
2023/05/25 07:41:46;;;;;;;13.40;4.20;;;15.70;98.00;;;;;;5034188;28;20451;-64
2023/05/25 07:44:13;;;;;;;13.07;4.37;;;15.90;98.00;;;;;;5000161;28;20461;-64
2023/05/25 07:46:42;;;;;;;10.30;3.93;;;16.00;98.00;;;;;;5034393;28;20814;-64
2023/05/25 07:49:14;;;;;;;9.90;4.63;;;16.00;98.00;;;;;;5033981;28;20988;-64
2023/05/25 07:51:43;;;;;;;8.63;3.67;;;16.20;98.00;;;;;;5034336;28;20450;-64
2023/05/25 07:54:10;;;;;;;11.53;3.90;;;16.40;98.00;;;;;;5033780;28;20477;-65
2023/05/25 07:56:37;;;;;;;10.63;4.27;;;16.50;98.00;;;;;;5033605;28;20466;-64
2023/05/25 07:59:05;;;;;;;15.53;4.00;;;16.60;98.00;;;;;;5033564;28;20995;-64
2023/05/25 08:01:32;;;;;;;7.50;3.70;;;16.70;98.00;;;;;;5035129;28;20534;-66
2023/05/25 08:04:01;;;;;;;9.30;4.20;;;16.90;98.00;;;;;;5051232;28;20484;-65
2023/05/25 08:06:34;;;;;;;9.37;3.70;;;17.10;98.00;;;;;;5052775;28;20457;-66
2023/05/25 08:09:05;;;;;;;9.70;3.33;;;17.30;98.00;;;;;;5053167;28;20460;-64
2023/05/25 08:11:32;;;;;;;11.10;4.23;;;17.40;98.00;;;;;;5052536;28;20460;-64
2023/05/25 08:13:59;;;;;;;9.03;3.70;;;17.40;98.00;;;;;;5035643;28;21074;-64
2023/05/25 08:16:26;;;;;;;9.03;3.50;;;17.50;98.00;;;;;;5051640;28;20517;-64
2023/05/25 08:18:53;;;;;;;9.27;3.67;;;17.70;98.00;;;;;;5035266;28;20457;-64
2023/05/25 08:21:20;;;;;;;7.03;3.70;;;17.90;98.00;;;;;;5053275;28;20469;-64
2023/05/25 08:23:49;;;;;;;10.93;3.90;;;18.00;98.00;;;;;;5053187;28;20519;-63
2023/05/25 08:26:18;;;;;;;7.03;4.10;;;18.20;98.00;;;;;;5053146;28;20537;-64
2023/05/25 08:28:45;;;;;;;6.90;4.00;;;18.40;98.00;;;;;;5052897;28;20462;-64
2023/05/25 08:31:12;;;;;;;12.17;4.10;;;18.40;98.00;;;;;;5053017;28;20576;-64
2023/05/25 08:33:40;;;;;;;8.80;4.60;;;18.40;98.00;;;;;;5053140;28;20948;-64
2023/05/25 08:36:08;;;;;;;7.23;4.07;;;18.50;98.00;;;;;;5053233;28;20541;-64
2023/05/25 08:38:35;;;;;;;12.50;3.97;;;18.50;98.00;;;;;;5035727;28;20454;-64
2023/05/25 08:41:05;;;;;;;9.13;4.20;;;18.40;98.00;;;;;;5052882;28;20462;-64
2023/05/25 08:43:33;;;;;;;13.37;4.93;;;18.50;98.00;;;;;;5053224;28;20988;-64
2023/05/25 08:46:04;;;;;;;8.40;4.43;;;18.50;98.00;;;;;;5052913;28;20450;-64
2023/05/25 08:48:35;;;;;;;9.07;4.07;;;18.60;98.00;;;;;;5053279;28;20462;-64
2023/05/25 08:51:06;;;;;;;9.63;4.63;;;18.70;98.00;;;;;;5052862;28;20912;-64
2023/05/25 08:53:36;;;;;;;8.50;4.07;;;18.80;98.00;;;;;;5052778;28;20474;-64
2023/05/25 08:56:08;;;;;;;10.70;4.60;;;18.80;98.00;;;;;;5052704;28;20587;-64
2023/05/25 08:58:45;;;;;;;10.83;4.40;;;19.00;98.00;;;;;;5053025;28;20450;-64
2023/05/25 09:01:19;;;;;;;7.60;3.83;;;19.10;98.00;;;;;;5052537;28;20454;-64
2023/05/25 09:03:48;;;;;;;9.47;4.50;;;19.20;98.00;;;;;;5052672;28;20942;-64
2023/05/25 09:06:17;;;;;;;7.40;4.03;;;19.40;98.00;;;;;;5052307;28;20450;-64
2023/05/25 09:08:44;;;;;;;8.07;4.40;;;19.40;98.00;;;;;;5052527;28;20998;-64
2023/05/25 09:11:14;;;;;;;7.50;4.30;;;19.60;98.00;;;;;;5052250;28;20485;-64
2023/05/25 09:13:43;;;;;;;8.87;4.53;;;19.70;98.00;;;;;;5052203;28;20464;-64
2023/05/25 09:16:10;;;;;;;6.90;3.70;;;19.80;98.00;;;;;;5052372;28;20458;-64
2023/05/25 09:18:37;;;;;;;7.30;3.67;;;20.00;98.00;;;;;;5051594;28;20893;-64
2023/05/25 09:21:04;;;;;;;9.83;4.33;;;20.10;98.00;;;;;;5052218;28;20974;-64
2023/05/25 09:23:34;;;;;;;8.47;4.83;;;20.30;98.00;;;;;;5052233;28;20456;-64
2023/05/25 09:26:02;;;;;;;10.80;4.70;;;20.40;98.00;;;;;;5052176;28;20461;-64
2023/05/25 09:28:29;;;;;;;8.90;4.60;;;20.40;97.70;;;;;;5052067;28;20453;-64
2023/05/25 09:30:59;;;;;;;10.30;4.77;;;20.60;98.00;;;;;;5051936;28;20531;-64
2023/05/25 09:33:26;;;;;;;10.50;4.07;;;20.70;98.00;;;;;;5051964;28;20519;-64
2023/05/25 09:35:54;;;;;;;8.00;4.30;;;20.80;98.00;;;;;;5052407;28;20755;-64
2023/05/25 09:38:23;;;;;;;8.90;4.40;;;20.80;98.00;;;;;;5052255;28;20438;-64
2023/05/25 09:40:51;;;;;;;8.70;4.50;;;20.70;96.80;;;;;;5051909;28;20461;-64
2023/05/25 09:43:18;;;;;;;7.00;3.87;;;20.90;98.00;;;;;;5052003;28;20466;-64
2023/05/25 09:45:46;;;;;;;8.90;4.23;;;21.10;98.00;;;;;;5052096;28;20450;-64
2023/05/25 09:48:14;;;;;;;9.73;4.40;;;21.30;96.50;;;;;;5034068;28;20461;-64
2023/05/25 09:50:42;;;;;;;8.60;4.00;;;21.40;97.40;;;;;;5051760;28;20555;-64
2023/05/25 09:53:09;;;;;;;12.20;5.33;;;21.30;96.40;;;;;;5034224;28;20504;-64
2023/05/25 09:55:38;;;;;;;9.13;4.67;;;21.10;95.50;;;;;;5051427;28;20480;-64
2023/05/25 09:58:06;;;;;;;8.57;4.57;;;21.00;96.60;;;;;;5033480;28;20462;-64
2023/05/25 10:00:33;;;;;;;10.23;3.97;;;21.00;98.00;;;;;;5050963;28;20549;-64
2023/05/25 10:03:00;;;;;;;6.53;3.80;;;20.90;97.90;;;;;;5033573;28;20863;-64
2023/05/25 10:05:29;;;;;;;7.40;4.33;;;20.90;98.00;;;;;;5050929;28;20481;-64
2023/05/25 10:07:57;;;;;;;10.27;4.30;;;20.80;98.00;;;;;;5051164;28;20457;-65
2023/05/25 10:10:24;;;;;;;7.37;4.33;;;21.00;98.00;;;;;;5050800;28;20485;-65
2023/05/25 10:12:53;;;;;;;9.23;4.30;;;21.20;98.00;;;;;;5033572;28;20480;-64
2023/05/25 10:15:22;;;;;;;7.27;3.80;;;21.40;98.00;;;;;;5016594;28;20462;-64
2023/05/25 10:17:53;;;;;;;8.57;4.03;;;21.60;98.00;;;;;;5032914;28;21024;-64
2023/05/25 10:20:23;;;;;;;10.70;4.27;;;21.90;98.00;;;;;;5050798;28;20557;-64
2023/05/25 10:23:00;;;;;;;7.13;3.73;;;21.90;97.20;;;;;;5032950;28;20833;-64
2023/05/25 10:25:31;;;;;;;6.77;3.70;;;21.80;97.40;;;;;;5050787;28;20957;-65
2023/05/25 10:28:00;;;;;;;8.57;4.40;;;21.90;97.60;;;;;;5050785;28;20839;-65
2023/05/25 10:30:28;;;;;;;8.20;3.70;;;22.00;97.00;;;;;;5053498;28;20465;-64
2023/05/25 10:32:55;;;;;;;10.63;4.87;;;22.00;97.40;;;;;;5054629;28;20453;-63
2023/05/25 10:35:23;;;;;;;9.90;4.60;;;22.10;96.90;;;;;;5054564;28;20461;-64
2023/05/25 10:37:53;;;;;;;9.27;4.67;;;22.10;96.70;;;;;;5054801;28;20449;-65
2023/05/25 10:40:22;;;;;;;6.33;3.80;;;22.10;96.80;;;;;;5036982;28;20450;-64
2023/05/25 10:42:50;;;;;;;7.50;3.77;;;22.00;95.60;;;;;;5054882;28;20550;-64
2023/05/25 10:45:18;;;;;;;6.90;3.60;;;21.90;95.50;;;;;;5054500;28;20473;-64
2023/05/25 10:47:46;;;;;;;7.50;4.10;;;22.00;96.30;;;;;;5054379;28;20450;-64
2023/05/25 10:50:20;;;;;;;8.53;4.37;;;22.10;97.50;;;;;;5054275;28;20491;-64
2023/05/25 10:53:00;;;;;;;10.13;4.40;;;22.30;95.50;;;;;;5054133;28;20503;-64
2023/05/25 10:55:30;;;;;;;8.60;4.50;;;22.50;95.20;;;;;;5052947;28;20452;-65
2023/05/25 10:58:12;;;;;;;7.33;4.03;;;22.60;95.80;;;;;;5054207;28;20965;-65
2023/05/25 11:00:40;;;;;;;7.83;3.83;;;22.90;93.70;;;;;;5054050;28;20515;-65
2023/05/25 11:03:08;;;;;;;12.87;4.00;;;23.40;94.50;;;;;;5053928;28;20461;-62
2023/05/25 11:05:38;;;;;;;6.30;3.77;;;23.80;93.50;;;;;;5054276;28;20951;-62
2023/05/25 11:08:10;;;;;;;8.17;4.17;;;23.80;92.30;;;;;;5053811;28;20472;-61
2023/05/25 11:10:51;;;;;;;6.07;3.90;;;23.70;92.30;;;;;;5053885;28;20485;-62
2023/05/25 11:13:34;;;;;;;8.67;4.70;;;23.80;93.60;;;;;;5053893;28;20529;-62
2023/05/25 11:16:17;;;;;;;8.00;3.90;;;23.80;92.20;;;;;;5054037;28;20480;-62
2023/05/25 11:18:45;;;;;;;5.77;3.40;;;23.60;91.80;;;;;;5053846;28;20468;-61
2023/05/25 11:21:21;;;;;;;7.40;4.17;;;23.50;92.30;;;;;;5053556;28;20500;-62
2023/05/25 11:23:57;;;;;;;11.30;5.27;;;23.30;92.00;;;;;;5020027;28;20465;-61
2023/05/25 11:26:26;;;;;;;7.93;4.13;;;23.10;92.80;;;;;;5053194;28;20457;-61
2023/05/25 11:28:54;;;;;;;7.80;3.90;;;23.00;93.10;;;;;;5053528;28;20464;-62
2023/05/25 11:31:29;;;;;;;7.20;4.27;;;23.00;92.40;;;;;;5053512;28;20507;-62
2023/05/25 11:33:57;;;;;;;10.07;3.90;;;23.10;94.10;;;;;;5053606;28;20552;-62
2023/05/25 11:36:25;;;;;;;7.90;4.10;;;23.40;93.90;;;;;;5053589;28;20515;-65
2023/05/25 11:38:53;;;;;;;7.00;3.80;;;23.40;92.00;;;;;;5053570;28;20549;-61
2023/05/25 11:41:22;;;;;;;11.87;4.70;;;23.50;91.30;;;;;;5035013;28;20464;-61
2023/05/25 11:43:50;;;;;;;7.73;4.57;;;23.60;91.70;;;;;;5053227;28;20458;-61
2023/05/25 11:46:18;;;;;;;6.20;3.60;;;24.10;93.90;;;;;;5052997;28;20497;-62
2023/05/25 11:48:50;;;;;;;11.37;4.63;;;24.60;94.20;;;;;;5053179;28;20457;-61
2023/05/25 11:51:18;;;;;;;9.77;4.47;;;25.00;89.70;;;;;;5053246;28;20573;-61
2023/05/25 11:53:46;;;;;;;9.77;4.33;;;25.00;88.00;;;;;;5035126;28;20470;-62
2023/05/25 11:56:14;;;;;;;8.73;4.50;;;25.20;88.20;;;;;;5052912;28;20482;-62
2023/05/25 11:58:44;;;;;;;10.80;4.30;;;25.40;88.40;;;;;;5053051;28;20468;-61
2023/05/25 12:01:17;;;;;;;7.00;4.07;;;25.20;88.10;;;;;;5053033;28;20461;-62
2023/05/25 12:03:45;;;;;;;10.17;4.37;;;25.00;88.20;;;;;;5034817;28;20471;-62
2023/05/25 12:06:25;;;;;;;8.03;4.43;;;24.70;89.60;;;;;;5052627;28;20812;-62
2023/05/25 12:08:52;;;;;;;7.83;4.20;;;24.30;89.50;;;;;;5052663;28;20637;-61
2023/05/25 12:11:26;;;;;;;15.70;4.37;;;24.30;90.60;;;;;;5034780;28;20493;-61
2023/05/25 12:13:55;;;;;;;7.97;4.30;;;24.80;90.50;;;;;;5035867;28;20947;-61
2023/05/25 12:16:24;;;;;;;13.90;4.10;;;24.90;88.90;;;;;;5052421;28;20453;-61
2023/05/25 12:18:52;;;;;;;6.67;4.20;;;24.90;89.80;;;;;;5052898;28;20466;-61
2023/05/25 12:21:19;;;;;;;8.60;4.13;;;24.90;87.70;;;;;;5052596;28;20461;-61
2023/05/25 12:23:46;;;;;;;9.17;4.07;;;24.90;89.70;;;;;;5052325;28;20998;-61
2023/05/25 12:26:15;;;;;;;8.60;4.33;;;25.00;89.60;;;;;;5034826;28;20808;-61
2023/05/25 12:28:59;;;;;;;7.20;4.60;;;24.80;89.40;;;;;;5052474;28;20492;-61
2023/05/25 12:31:27;;;;;;;8.10;4.70;;;24.60;90.00;;;;;;5052634;28;20512;-61
2023/05/25 12:34:05;;;;;;;9.10;4.00;;;24.50;90.50;;;;;;5052245;28;20453;-61
2023/05/25 12:36:40;;;;;;;9.50;4.20;;;24.60;91.60;;;;;;5052146;28;20461;-61
2023/05/25 12:39:09;;;;;;;10.13;4.10;;;24.50;89.20;;;;;;5034249;28;20464;-61
2023/05/25 12:41:49;;;;;;;8.97;3.87;;;24.50;90.10;;;;;;5052221;28;20541;-61
2023/05/25 12:44:20;;;;;;;6.47;3.97;;;24.60;91.50;;;;;;5052124;28;20453;-61
2023/05/25 12:46:47;;;;;;;6.80;3.90;;;24.50;90.70;;;;;;5052198;28;20540;-61
2023/05/25 12:49:28;;;;;;;8.90;4.27;;;24.60;90.80;;;;;;5052162;28;20461;-61
2023/05/25 12:51:56;;;;;;;9.53;4.57;;;24.60;91.10;;;;;;5051878;28;20489;-61
2023/05/25 12:54:42;;;;;;;8.03;3.80;;;24.60;91.30;;;;;;5051125;28;20466;-61